sensor_id;sensor_type;location;lat;lon;timestamp;pressure;altitude;pressure_sealevel;temperature;humidity
10988;BME280;5547;42.672;23.230;2022-12-07T00:02:10;93331.09;;;2.32;100.00
10988;BME280;5547;42.672;23.230;2022-12-07T00:04:35;93328.06;;;2.30;100.00
10988;BME280;5547;42.672;23.230;2022-12-07T00:07:01;93322.41;;;2.28;100.00
10988;BME280;5547;42.672;23.230;2022-12-07T00:09:27;93325.75;;;2.25;100.00
10988;BME280;5547;42.672;23.230;2022-12-07T00:11:52;93327.97;;;2.23;100.00
10988;BME280;5547;42.672;23.230;2022-12-07T00:14:18;93322.13;;;2.33;100.00
10988;BME280;5547;42.672;23.230;2022-12-07T00:16:43;93321.31;;;2.29;100.00
10988;BME280;5547;42.672;23.230;2022-12-07T00:19:09;93326.56;;;2.29;100.00
10988;BME280;5547;42.672;23.230;2022-12-07T00:21:35;93321.03;;;2.34;100.00
10988;BME280;5547;42.672;23.230;2022-12-07T00:24:02;93329.13;;;2.25;100.00
10988;BME280;5547;42.672;23.230;2022-12-07T00:26:28;93329.47;;;2.24;100.00
10988;BME280;5547;42.672;23.230;2022-12-07T00:28:55;93319.34;;;2.22;100.00
10988;BME280;5547;42.672;23.230;2022-12-07T00:31:21;93320.44;;;2.21;100.00
10988;BME280;5547;42.672;23.230;2022-12-07T00:33:47;93310.31;;;2.20;100.00
10988;BME280;5547;42.672;23.230;2022-12-07T00:36:14;93318.97;;;2.24;100.00
10988;BME280;5547;42.672;23.230;2022-12-07T00:38:39;93332.91;;;2.28;100.00
10988;BME280;5547;42.672;23.230;2022-12-07T00:41:06;93331.63;;;2.41;100.00
10988;BME280;5547;42.672;23.230;2022-12-07T00:43:32;93332.19;;;2.31;100.00
10988;BME280;5547;42.672;23.230;2022-12-07T00:45:57;93319.44;;;2.52;100.00
10988;BME280;5547;42.672;23.230;2022-12-07T00:48:23;93319.22;;;2.38;100.00
10988;BME280;5547;42.672;23.230;2022-12-07T00:50:49;93322.19;;;2.37;100.00
10988;BME280;5547;42.672;23.230;2022-12-07T00:53:14;93323.00;;;2.41;100.00
10988;BME280;5547;42.672;23.230;2022-12-07T00:55:40;93327.66;;;2.28;100.00
10988;BME280;5547;42.672;23.230;2022-12-07T00:58:05;93325.78;;;2.28;100.00
10988;BME280;5547;42.672;23.230;2022-12-07T01:00:31;93323.97;;;2.33;100.00
10988;BME280;5547;42.672;23.230;2022-12-07T01:02:56;93328.06;;;2.30;100.00
10988;BME280;5547;42.672;23.230;2022-12-07T01:05:22;93317.97;;;2.32;100.00
10988;BME280;5547;42.672;23.230;2022-12-07T01:07:47;93325.78;;;2.28;100.00
10988;BME280;5547;42.672;23.230;2022-12-07T01:10:13;93327.25;;;2.26;100.00
10988;BME280;5547;42.672;23.230;2022-12-07T01:12:38;93313.03;;;2.27;100.00
10988;BME280;5547;42.672;23.230;2022-12-07T01:15:04;93318.97;;;2.24;100.00
10988;BME280;5547;42.672;23.230;2022-12-07T01:17:29;93307.94;;;2.38;100.00
10988;BME280;5547;42.672;23.230;2022-12-07T01:19:55;93314.53;;;2.28;100.00
10988;BME280;5547;42.672;23.230;2022-12-07T01:22:20;93300.91;;;2.19;100.00
10988;BME280;5547;42.672;23.230;2022-12-07T01:24:45;93307.94;;;2.15;100.00
10988;BME280;5547;42.672;23.230;2022-12-07T01:27:11;93302.47;;;2.23;100.00
10988;BME280;5547;42.672;23.230;2022-12-07T01:29:37;93296.66;;;2.10;100.00
10988;BME280;5547;42.672;23.230;2022-12-07T01:32:02;93297.41;;;2.11;100.00
10988;BME280;5547;42.672;23.230;2022-12-07T01:34:27;93296.25;;;2.08;100.00
10988;BME280;5547;42.672;23.230;2022-12-07T01:36:53;93301.38;;;2.01;100.00
10988;BME280;5547;42.672;23.230;2022-12-07T01:39:18;93302.06;;;1.98;100.00
10988;BME280;5547;42.672;23.230;2022-12-07T01:41:43;93298.34;;;1.99;100.00
10988;BME280;5547;42.672;23.230;2022-12-07T01:46:41;93294.25;;;2.02;100.00
10988;BME280;5547;42.672;23.230;2022-12-07T01:49:08;93291.16;;;1.96;100.00
10988;BME280;5547;42.672;23.230;2022-12-07T01:51:35;93293.78;;;1.96;100.00
10988;BME280;5547;42.672;23.230;2022-12-07T01:54:02;93291.56;;;1.98;100.00
10988;BME280;5547;42.672;23.230;2022-12-07T01:56:28;93291.16;;;1.96;100.00
10988;BME280;5547;42.672;23.230;2022-12-07T01:58:54;93282.53;;;1.96;100.00
10988;BME280;5547;42.672;23.230;2022-12-07T02:01:20;93284.53;;;2.02;100.00
10988;BME280;5547;42.672;23.230;2022-12-07T02:03:45;93286.41;;;2.02;100.00
10988;BME280;5547;42.672;23.230;2022-12-07T02:06:12;93282.25;;;2.01;100.00
10988;BME280;5547;42.672;23.230;2022-12-07T02:08:38;93277.34;;;1.99;100.00
10988;BME280;5547;42.672;23.230;2022-12-07T02:11:03;93284.53;;;2.02;100.00
10988;BME280;5547;42.672;23.230;2022-12-07T02:13:30;93286.44;;;2.05;100.00
10988;BME280;5547;42.672;23.230;2022-12-07T02:21:07;93272.63;;;2.08;100.00
10988;BME280;5547;42.672;23.230;2022-12-07T02:28:35;93269.38;;;1.92;100.00
10988;BME280;5547;42.672;23.230;2022-12-07T02:31:06;93276.84;;;1.90;100.00
10988;BME280;5547;42.672;23.230;2022-12-07T02:33:41;93277.34;;;1.76;100.00
10988;BME280;5547;42.672;23.230;2022-12-07T02:36:10;93266.34;;;1.67;100.00
10988;BME280;5547;42.672;23.230;2022-12-07T02:38:38;93275.56;;;1.61;100.00
10988;BME280;5547;42.672;23.230;2022-12-07T02:43:36;93279.66;;;1.58;100.00
10988;BME280;5547;42.672;23.230;2022-12-07T02:46:08;93271.38;;;1.56;100.00
10988;BME280;5547;42.672;23.230;2022-12-07T02:48:35;93264.00;;;1.62;100.00
10988;BME280;5547;42.672;23.230;2022-12-07T02:51:02;93260.34;;;1.66;100.00
10988;BME280;5547;42.672;23.230;2022-12-07T02:53:28;93249.69;;;1.59;100.00
10988;BME280;5547;42.672;23.230;2022-12-07T02:55:54;93245.88;;;1.53;100.00
10988;BME280;5547;42.672;23.230;2022-12-07T03:00:57;93253.88;;;1.41;100.00
10988;BME280;5547;42.672;23.230;2022-12-07T03:03:27;93251.66;;;1.43;100.00
10988;BME280;5547;42.672;23.230;2022-12-07T03:08:33;93248.00;;;1.47;100.00
10988;BME280;5547;42.672;23.230;2022-12-07T03:11:02;93241.97;;;1.43;100.00
10988;BME280;5547;42.672;23.230;2022-12-07T03:13:37;93238.84;;;1.38;100.00
10988;BME280;5547;42.672;23.230;2022-12-07T03:18:36;93253.88;;;1.41;100.00
10988;BME280;5547;42.672;23.230;2022-12-07T03:21:05;93253.88;;;1.41;100.00
10988;BME280;5547;42.672;23.230;2022-12-07T03:23:31;93257.41;;;1.49;100.00
10988;BME280;5547;42.672;23.230;2022-12-07T03:25:59;93257.84;;;1.54;100.00
10988;BME280;5547;42.672;23.230;2022-12-07T03:28:26;93257.72;;;1.47;100.00
10988;BME280;5547;42.672;23.230;2022-12-07T03:31:05;93262.94;;;1.43;100.00
10988;BME280;5547;42.672;23.230;2022-12-07T03:36:14;93247.88;;;1.40;100.00
10988;BME280;5547;42.672;23.230;2022-12-07T03:38:50;93251.00;;;1.46;100.00
10988;BME280;5547;42.672;23.230;2022-12-07T03:41:19;93250.16;;;1.42;100.00
10988;BME280;5547;42.672;23.230;2022-12-07T03:43:47;93252.78;;;1.42;100.00
10988;BME280;5547;42.672;23.230;2022-12-07T03:48:51;93254.41;;;1.50;100.00
10988;BME280;5547;42.672;23.230;2022-12-07T03:56:28;93241.31;;;1.50;100.00
10988;BME280;5547;42.672;23.230;2022-12-07T03:58:55;93242.84;;;1.51;100.00
10988;BME280;5547;42.672;23.230;2022-12-07T04:01:20;93243.16;;;1.50;100.00
10988;BME280;5547;42.672;23.230;2022-12-07T04:03:47;93236.06;;;1.50;100.00
10988;BME280;5547;42.672;23.230;2022-12-07T04:06:12;93233.19;;;1.55;100.00
10988;BME280;5547;42.672;23.230;2022-12-07T04:08:38;93234.63;;;1.53;100.00
10988;BME280;5547;42.672;23.230;2022-12-07T04:11:03;93233.84;;;1.52;100.00
10988;BME280;5547;42.672;23.230;2022-12-07T04:13:28;93233.81;;;1.49;100.00
10988;BME280;5547;42.672;23.230;2022-12-07T04:15:53;93231.66;;;1.54;100.00
10988;BME280;5547;42.672;23.230;2022-12-07T04:18:19;93242.09;;;1.51;100.00
10988;BME280;5547;42.672;23.230;2022-12-07T04:20:45;93240.56;;;1.50;100.00
10988;BME280;5547;42.672;23.230;2022-12-07T04:23:10;93234.63;;;1.53;100.00
10988;BME280;5547;42.672;23.230;2022-12-07T04:25:35;93243.66;;;1.55;100.00
10988;BME280;5547;42.672;23.230;2022-12-07T04:28:01;93246.97;;;1.52;100.00
10988;BME280;5547;42.672;23.230;2022-12-07T04:30:26;93239.69;;;1.65;100.00
10988;BME280;5547;42.672;23.230;2022-12-07T04:32:52;93244.47;;;1.59;100.00
10988;BME280;5547;42.672;23.230;2022-12-07T04:35:17;93239.22;;;1.59;100.00
10988;BME280;5547;42.672;23.230;2022-12-07T04:37:42;93240.34;;;1.58;100.00
10988;BME280;5547;42.672;23.230;2022-12-07T04:40:08;93243.66;;;1.55;100.00
10988;BME280;5547;42.672;23.230;2022-12-07T04:42:35;93239.88;;;1.53;100.00
10988;BME280;5547;42.672;23.230;2022-12-07T04:45:01;93245.88;;;1.53;100.00
10988;BME280;5547;42.672;23.230;2022-12-07T04:47:26;93246.53;;;1.50;100.00
10988;BME280;5547;42.672;23.230;2022-12-07T04:49:51;93251.41;;;1.48;100.00
10988;BME280;5547;42.672;23.230;2022-12-07T04:52:17;93248.72;;;1.44;100.00
10988;BME280;5547;42.672;23.230;2022-12-07T04:54:42;93243.72;;;1.59;100.00
10988;BME280;5547;42.672;23.230;2022-12-07T04:57:07;93240.22;;;1.51;100.00
10988;BME280;5547;42.672;23.230;2022-12-07T04:59:33;93253.38;;;1.55;100.00
10988;BME280;5547;42.672;23.230;2022-12-07T05:01:58;93245.91;;;1.57;100.00
10988;BME280;5547;42.672;23.230;2022-12-07T05:04:23;93247.09;;;1.59;100.00
10988;BME280;5547;42.672;23.230;2022-12-07T05:06:48;93251.22;;;1.60;100.00
10988;BME280;5547;42.672;23.230;2022-12-07T05:09:14;93254.69;;;1.64;100.00
10988;BME280;5547;42.672;23.230;2022-12-07T05:11:39;93259.56;;;1.66;100.00
10988;BME280;5547;42.672;23.230;2022-12-07T05:16:36;93249.84;;;1.66;100.00
10988;BME280;5547;42.672;23.230;2022-12-07T05:19:01;93257.63;;;1.63;100.00
10988;BME280;5547;42.672;23.230;2022-12-07T05:21:27;93258.75;;;1.62;100.00
10988;BME280;5547;42.672;23.230;2022-12-07T05:23:52;93253.84;;;1.60;100.00
10988;BME280;5547;42.672;23.230;2022-12-07T05:26:17;93253.84;;;1.60;100.00
10988;BME280;5547;42.672;23.230;2022-12-07T05:28:43;93252.41;;;1.63;100.00
10988;BME280;5547;42.672;23.230;2022-12-07T05:31:08;93249.44;;;1.64;100.00
10988;BME280;5547;42.672;23.230;2022-12-07T05:33:33;93235.31;;;1.73;100.00
10988;BME280;5547;42.672;23.230;2022-12-07T05:35:58;93242.31;;;1.65;100.00
10988;BME280;5547;42.672;23.230;2022-12-07T05:38:24;93239.41;;;1.70;100.00
10988;BME280;5547;42.672;23.230;2022-12-07T05:40:50;93239.38;;;1.66;100.00
10988;BME280;5547;42.672;23.230;2022-12-07T05:43:15;93238.03;;;1.76;100.00
10988;BME280;5547;42.672;23.230;2022-12-07T05:45:40;93233.41;;;1.70;100.00
10988;BME280;5547;42.672;23.230;2022-12-07T05:48:05;93222.91;;;1.70;100.00
10988;BME280;5547;42.672;23.230;2022-12-07T05:50:31;93225.84;;;1.64;100.00
10988;BME280;5547;42.672;23.230;2022-12-07T05:52:56;93239.22;;;1.59;100.00
10988;BME280;5547;42.672;23.230;2022-12-07T05:55:21;93228.34;;;1.57;100.00
10988;BME280;5547;42.672;23.230;2022-12-07T05:57:46;93232.81;;;1.57;100.00
10988;BME280;5547;42.672;23.230;2022-12-07T06:00:30;93226.78;;;1.76;100.00
10988;BME280;5547;42.672;23.230;2022-12-07T06:02:55;93228.47;;;1.64;100.00
10988;BME280;5547;42.672;23.230;2022-12-07T06:05:21;93228.72;;;1.59;100.00
10988;BME280;5547;42.672;23.230;2022-12-07T06:07:46;93240.03;;;1.63;100.00
10988;BME280;5547;42.672;23.230;2022-12-07T06:10:11;93230.19;;;1.80;100.00
10988;BME280;5547;42.672;23.230;2022-12-07T06:12:36;93240.75;;;1.83;100.00
10988;BME280;5547;42.672;23.230;2022-12-07T06:15:04;93248.81;;;1.94;100.00
10988;BME280;5547;42.672;23.230;2022-12-07T06:17:30;93246.19;;;1.94;100.00
10988;BME280;5547;42.672;23.230;2022-12-07T06:19:55;93246.28;;;2.01;100.00
10988;BME280;5547;42.672;23.230;2022-12-07T06:22:20;93245.91;;;2.03;100.00
10988;BME280;5547;42.672;23.230;2022-12-07T06:24:45;93245.44;;;2.20;100.00
10988;BME280;5547;42.672;23.230;2022-12-07T06:27:11;93240.03;;;2.09;100.00
10988;BME280;5547;42.672;23.230;2022-12-07T06:29:36;93243.06;;;2.12;100.00
10988;BME280;5547;42.672;23.230;2022-12-07T06:32:02;93269.41;;;2.19;100.00
10988;BME280;5547;42.672;23.230;2022-12-07T06:34:27;93254.53;;;2.26;100.00
10988;BME280;5547;42.672;23.230;2022-12-07T06:36:52;93250.94;;;2.12;100.00
10988;BME280;5547;42.672;23.230;2022-12-07T06:39:21;93250.28;;;2.18;100.00
10988;BME280;5547;42.672;23.230;2022-12-07T06:41:46;93266.66;;;2.35;100.00
10988;BME280;5547;42.672;23.230;2022-12-07T06:44:12;93257.06;;;2.46;100.00
10988;BME280;5547;42.672;23.230;2022-12-07T06:46:37;93255.09;;;2.39;100.00
10988;BME280;5547;42.672;23.230;2022-12-07T06:49:03;93262.22;;;2.39;100.00
10988;BME280;5547;42.672;23.230;2022-12-07T06:51:29;93260.81;;;2.22;100.00
10988;BME280;5547;42.672;23.230;2022-12-07T06:53:54;93263.97;;;2.31;100.00
10988;BME280;5547;42.672;23.230;2022-12-07T06:56:20;93262.75;;;2.25;100.00
10988;BME280;5547;42.672;23.230;2022-12-07T06:58:45;93269.50;;;2.26;100.00
10988;BME280;5547;42.672;23.230;2022-12-07T07:01:11;93265.50;;;2.32;100.00
10988;BME280;5547;42.672;23.230;2022-12-07T07:03:37;93257.81;;;2.46;100.00
10988;BME280;5547;42.672;23.230;2022-12-07T07:06:03;93261.81;;;2.37;100.00
10988;BME280;5547;42.672;23.230;2022-12-07T07:08:28;93264.34;;;2.29;100.00
10988;BME280;5547;42.672;23.230;2022-12-07T07:10:53;93260.69;;;2.38;100.00
10988;BME280;5547;42.672;23.230;2022-12-07T07:13:19;93268.31;;;2.46;100.00
10988;BME280;5547;42.672;23.230;2022-12-07T07:15:44;93262.75;;;2.51;100.00
10988;BME280;5547;42.672;23.230;2022-12-07T07:18:09;93259.63;;;2.69;100.00
10988;BME280;5547;42.672;23.230;2022-12-07T07:20:35;93262.34;;;2.49;100.00
10988;BME280;5547;42.672;23.230;2022-12-07T07:23:00;93263.91;;;2.54;100.00
10988;BME280;5547;42.672;23.230;2022-12-07T07:25:25;93273.63;;;2.50;100.00
10988;BME280;5547;42.672;23.230;2022-12-07T07:27:51;93277.81;;;2.55;100.00
10988;BME280;5547;42.672;23.230;2022-12-07T07:30:16;93270.94;;;2.73;100.00
10988;BME280;5547;42.672;23.230;2022-12-07T07:32:41;93269.28;;;2.61;100.00
10988;BME280;5547;42.672;23.230;2022-12-07T07:35:06;93270.47;;;2.67;100.00
10988;BME280;5547;42.672;23.230;2022-12-07T07:37:32;93264.41;;;2.63;100.00
10988;BME280;5547;42.672;23.230;2022-12-07T07:39:57;93263.16;;;2.80;100.00
10988;BME280;5547;42.672;23.230;2022-12-07T07:42:22;93266.59;;;2.84;100.00
10988;BME280;5547;42.672;23.230;2022-12-07T07:44:48;93272.63;;;2.88;100.00
10988;BME280;5547;42.672;23.230;2022-12-07T07:47:13;93265.63;;;2.96;100.00
10988;BME280;5547;42.672;23.230;2022-12-07T07:49:38;93282.44;;;2.91;100.00
10988;BME280;5547;42.672;23.230;2022-12-07T07:52:05;93276.66;;;2.79;100.00
10988;BME280;5547;42.672;23.230;2022-12-07T07:54:30;93271.59;;;2.66;100.00
10988;BME280;5547;42.672;23.230;2022-12-07T07:56:55;93275.03;;;2.70;100.00
10988;BME280;5547;42.672;23.230;2022-12-07T07:59:20;93268.81;;;2.82;100.00
10988;BME280;5547;42.672;23.230;2022-12-07T08:01:46;93269.78;;;2.70;100.00
10988;BME280;5547;42.672;23.230;2022-12-07T08:04:11;93274.28;;;2.70;100.00
10988;BME280;5547;42.672;23.230;2022-12-07T08:06:36;93263.56;;;2.82;100.00
10988;BME280;5547;42.672;23.230;2022-12-07T08:09:02;93267.59;;;2.76;100.00
10988;BME280;5547;42.672;23.230;2022-12-07T08:11:27;93262.84;;;2.85;100.00
10988;BME280;5547;42.672;23.230;2022-12-07T08:13:52;93260.63;;;2.87;100.00
10988;BME280;5547;42.672;23.230;2022-12-07T08:16:18;93268.16;;;2.89;100.00
10988;BME280;5547;42.672;23.230;2022-12-07T08:18:43;93258.22;;;2.75;100.00
10988;BME280;5547;42.672;23.230;2022-12-07T08:21:12;93264.16;;;2.72;100.00
10988;BME280;5547;42.672;23.230;2022-12-07T08:23:38;93265.63;;;2.69;100.00
10988;BME280;5547;42.672;23.230;2022-12-07T08:26:04;93257.09;;;2.76;100.00
10988;BME280;5547;42.672;23.230;2022-12-07T08:28:30;93265.28;;;2.71;100.00
10988;BME280;5547;42.672;23.230;2022-12-07T08:31:02;93271.31;;;2.71;100.00
10988;BME280;5547;42.672;23.230;2022-12-07T08:33:28;93268.66;;;2.71;100.00
10988;BME280;5547;42.672;23.230;2022-12-07T08:35:53;93270.22;;;2.76;100.00
10988;BME280;5547;42.672;23.230;2022-12-07T08:38:19;93263.75;;;2.70;100.00
10988;BME280;5547;42.672;23.230;2022-12-07T08:40:44;93262.66;;;2.71;100.00
10988;BME280;5547;42.672;23.230;2022-12-07T08:43:09;93264.34;;;2.86;100.00
10988;BME280;5547;42.672;23.230;2022-12-07T08:45:35;93259.22;;;2.93;100.00
10988;BME280;5547;42.672;23.230;2022-12-07T08:48:07;93256.66;;;3.01;100.00
10988;BME280;5547;42.672;23.230;2022-12-07T08:50:36;93266.13;;;3.09;100.00
10988;BME280;5547;42.672;23.230;2022-12-07T08:53:02;93251.34;;;3.27;100.00
10988;BME280;5547;42.672;23.230;2022-12-07T08:55:29;93260.66;;;3.55;100.00
10988;BME280;5547;42.672;23.230;2022-12-07T08:57:54;93252.72;;;3.89;100.00
10988;BME280;5547;42.672;23.230;2022-12-07T09:00:20;93241.63;;;4.13;100.00
10988;BME280;5547;42.672;23.230;2022-12-07T09:02:45;93242.34;;;4.10;100.00
10988;BME280;5547;42.672;23.230;2022-12-07T09:05:11;93238.72;;;4.29;100.00
10988;BME280;5547;42.672;23.230;2022-12-07T09:07:37;93239.88;;;4.32;100.00
10988;BME280;5547;42.672;23.230;2022-12-07T09:10:03;93232.03;;;4.39;100.00
10988;BME280;5547;42.672;23.230;2022-12-07T09:12:29;93227.56;;;4.47;99.76
10988;BME280;5547;42.672;23.230;2022-12-07T09:14:55;93232.13;;;4.53;98.80
10988;BME280;5547;42.672;23.230;2022-12-07T09:17:20;93223.50;;;4.56;97.67
10988;BME280;5547;42.672;23.230;2022-12-07T09:19:45;93234.06;;;4.63;96.94
10988;BME280;5547;42.672;23.230;2022-12-07T09:22:11;93233.38;;;4.74;96.71
10988;BME280;5547;42.672;23.230;2022-12-07T09:24:36;93242.13;;;4.92;95.76
10988;BME280;5547;42.672;23.230;2022-12-07T09:27:01;93231.03;;;4.61;95.97
10988;BME280;5547;42.672;23.230;2022-12-07T09:29:27;93216.31;;;4.53;98.07
10988;BME280;5547;42.672;23.230;2022-12-07T09:31:52;93227.34;;;4.73;98.15
10988;BME280;5547;42.672;23.230;2022-12-07T09:34:18;93217.13;;;4.61;96.35
10988;BME280;5547;42.672;23.230;2022-12-07T09:36:43;93217.16;;;4.65;96.82
10988;BME280;5547;42.672;23.230;2022-12-07T09:39:09;93211.50;;;4.66;97.29
10988;BME280;5547;42.672;23.230;2022-12-07T09:41:37;93210.81;;;4.80;97.44
10988;BME280;5547;42.672;23.230;2022-12-07T09:44:09;93209.06;;;5.09;96.05
10988;BME280;5547;42.672;23.230;2022-12-07T09:46:37;93215.09;;;5.10;94.77
10988;BME280;5547;42.672;23.230;2022-12-07T09:49:03;93200.69;;;4.89;94.74
10988;BME280;5547;42.672;23.230;2022-12-07T09:51:30;93211.22;;;4.89;94.55
10988;BME280;5547;42.672;23.230;2022-12-07T09:53:56;93200.41;;;5.19;94.08
10988;BME280;5547;42.672;23.230;2022-12-07T09:56:23;93202.34;;;5.40;92.31
10988;BME280;5547;42.672;23.230;2022-12-07T09:58:49;93204.72;;;5.78;89.99
10988;BME280;5547;42.672;23.230;2022-12-07T10:01:16;93204.69;;;5.60;89.64
10988;BME280;5547;42.672;23.230;2022-12-07T10:03:51;93195.59;;;5.46;90.48
10988;BME280;5547;42.672;23.230;2022-12-07T10:06:18;93195.66;;;5.79;90.61
10988;BME280;5547;42.672;23.230;2022-12-07T10:08:43;93193.81;;;6.01;89.41
10988;BME280;5547;42.672;23.230;2022-12-07T10:11:11;93188.53;;;6.01;87.46
10988;BME280;5547;42.672;23.230;2022-12-07T10:13:41;93193.41;;;6.31;86.82
10988;BME280;5547;42.672;23.230;2022-12-07T10:16:49;93186.94;;;6.57;85.25
10988;BME280;5547;42.672;23.230;2022-12-07T10:18:56;93183.59;;;6.28;85.20
10988;BME280;5547;42.672;23.230;2022-12-07T10:21:22;93176.41;;;6.43;86.26
10988;BME280;5547;42.672;23.230;2022-12-07T10:24:01;93173.41;;;6.30;85.81
10988;BME280;5547;42.672;23.230;2022-12-07T10:26:34;93173.06;;;6.24;86.59
10988;BME280;5547;42.672;23.230;2022-12-07T10:29:21;93159.84;;;6.24;87.15
10988;BME280;5547;42.672;23.230;2022-12-07T10:31:45;93166.28;;;5.95;88.43
10988;BME280;5547;42.672;23.230;2022-12-07T10:36:49;93157.19;;;6.28;87.05
10988;BME280;5547;42.672;23.230;2022-12-07T10:39:16;93138.34;;;6.15;86.13
10988;BME280;5547;42.672;23.230;2022-12-07T10:41:55;93142.88;;;6.04;87.54
10988;BME280;5547;42.672;23.230;2022-12-07T10:44:22;93146.66;;;6.17;86.95
10988;BME280;5547;42.672;23.230;2022-12-07T10:47:34;93145.06;;;6.52;86.18
10988;BME280;5547;42.672;23.230;2022-12-07T11:00:23;93127.69;;;6.55;83.25
10988;BME280;5547;42.672;23.230;2022-12-07T11:03:00;93130.34;;;6.51;83.78
10988;BME280;5547;42.672;23.230;2022-12-07T11:05:42;93120.16;;;6.46;83.86
10988;BME280;5547;42.672;23.230;2022-12-07T11:08:17;93113.41;;;6.34;84.76
10988;BME280;5547;42.672;23.230;2022-12-07T11:10:47;93117.59;;;6.14;84.66
10988;BME280;5547;42.672;23.230;2022-12-07T11:15:53;93113.81;;;5.93;85.51
10988;BME280;5547;42.672;23.230;2022-12-07T11:18:24;93101.75;;;6.03;86.22
10988;BME280;5547;42.672;23.230;2022-12-07T11:23:30;93100.97;;;6.17;85.29
10988;BME280;5547;42.672;23.230;2022-12-07T11:31:16;93093.06;;;6.09;85.90
10988;BME280;5547;42.672;23.230;2022-12-07T11:39:00;93091.22;;;6.10;86.83
10988;BME280;5547;42.672;23.230;2022-12-07T11:41:27;93088.16;;;5.94;86.38
10988;BME280;5547;42.672;23.230;2022-12-07T11:43:55;93084.06;;;5.96;86.50
10988;BME280;5547;42.672;23.230;2022-12-07T11:46:22;93085.53;;;6.12;85.99
10988;BME280;5547;42.672;23.230;2022-12-07T11:48:52;93082.50;;;6.17;85.27
10988;BME280;5547;42.672;23.230;2022-12-07T11:51:20;93080.25;;;6.15;84.80
10988;BME280;5547;42.672;23.230;2022-12-07T11:53:47;93078.38;;;6.05;86.47
10988;BME280;5547;42.672;23.230;2022-12-07T11:56:18;93072.31;;;6.22;85.36
10988;BME280;5547;42.672;23.230;2022-12-07T12:03:40;93064.38;;;6.29;85.24
10988;BME280;5547;42.672;23.230;2022-12-07T12:06:06;93064.03;;;6.13;85.17
10988;BME280;5547;42.672;23.230;2022-12-07T12:08:36;93056.88;;;6.10;85.94
10988;BME280;5547;42.672;23.230;2022-12-07T12:21:40;93043.16;;;6.55;84.16
10988;BME280;5547;42.672;23.230;2022-12-07T12:24:11;93039.34;;;6.59;84.03
10988;BME280;5547;42.672;23.230;2022-12-07T12:26:38;93041.91;;;6.73;83.03
10988;BME280;5547;42.672;23.230;2022-12-07T12:29:17;93036.84;;;7.01;81.04
10988;BME280;5547;42.672;23.230;2022-12-07T12:31:46;93034.19;;;7.04;81.10
10988;BME280;5547;42.672;23.230;2022-12-07T12:34:32;93025.06;;;7.12;81.40
10988;BME280;5547;42.672;23.230;2022-12-07T12:36:58;93023.53;;;7.19;80.90
10988;BME280;5547;42.672;23.230;2022-12-07T12:39:23;93021.53;;;7.30;79.72
10988;BME280;5547;42.672;23.230;2022-12-07T12:41:51;93031.66;;;7.42;79.92
10988;BME280;5547;42.672;23.230;2022-12-07T12:46:48;93022.91;;;7.49;79.49
10988;BME280;5547;42.672;23.230;2022-12-07T12:59:29;93028.03;;;7.67;77.63
10988;BME280;5547;42.672;23.230;2022-12-07T13:04:48;93031.53;;;7.56;76.95
10988;BME280;5547;42.672;23.230;2022-12-07T13:07:47;93024.69;;;7.63;76.82
10988;BME280;5547;42.672;23.230;2022-12-07T13:09:59;93030.44;;;7.50;78.39
10988;BME280;5547;42.672;23.230;2022-12-07T13:12:25;93019.16;;;7.43;77.67
10988;BME280;5547;42.672;23.230;2022-12-07T13:14:54;93026.00;;;7.40;78.31
10988;BME280;5547;42.672;23.230;2022-12-07T13:19:55;93027.50;;;7.41;78.53
10988;BME280;5547;42.672;23.230;2022-12-07T13:27:39;93016.81;;;7.03;80.85
10988;BME280;5547;42.672;23.230;2022-12-07T13:30:18;93028.53;;;7.02;80.42
10988;BME280;5547;42.672;23.230;2022-12-07T13:32:47;93020.22;;;7.04;81.02
10988;BME280;5547;42.672;23.230;2022-12-07T13:35:26;93015.66;;;7.04;81.59
10988;BME280;5547;42.672;23.230;2022-12-07T13:37:52;93007.03;;;6.93;82.12
10988;BME280;5547;42.672;23.230;2022-12-07T13:40:18;93010.16;;;6.84;83.04
10988;BME280;5547;42.672;23.230;2022-12-07T13:42:44;93008.28;;;6.78;83.76
10988;BME280;5547;42.672;23.230;2022-12-07T13:45:26;93007.88;;;6.79;82.70
10988;BME280;5547;42.672;23.230;2022-12-07T13:50:51;93007.63;;;6.59;84.18
10988;BME280;5547;42.672;23.230;2022-12-07T13:53:17;93008.72;;;6.72;83.01
10988;BME280;5547;42.672;23.230;2022-12-07T13:55:45;93003.81;;;6.67;83.51
10988;BME280;5547;42.672;23.230;2022-12-07T13:58:11;93006.81;;;6.69;83.35
10988;BME280;5547;42.672;23.230;2022-12-07T14:00:37;93008.97;;;6.89;81.76
10988;BME280;5547;42.672;23.230;2022-12-07T14:05:29;93011.78;;;6.60;84.08
10988;BME280;5547;42.672;23.230;2022-12-07T14:07:56;93004.13;;;6.80;83.04
10988;BME280;5547;42.672;23.230;2022-12-07T14:10:26;93013.28;;;6.58;85.73
10988;BME280;5547;42.672;23.230;2022-12-07T14:12:52;93011.06;;;6.49;85.40
10988;BME280;5547;42.672;23.230;2022-12-07T14:15:22;93014.16;;;6.33;86.00
10988;BME280;5547;42.672;23.230;2022-12-07T14:17:50;93024.41;;;6.20;86.78
10988;BME280;5547;42.672;23.230;2022-12-07T14:20:32;93013.38;;;6.40;85.94
10988;BME280;5547;42.672;23.230;2022-12-07T14:22:59;93024.78;;;6.19;87.57
10988;BME280;5547;42.672;23.230;2022-12-07T14:25:44;93026.72;;;5.89;89.01
10988;BME280;5547;42.672;23.230;2022-12-07T14:28:09;93013.16;;;5.98;88.35
10988;BME280;5547;42.672;23.230;2022-12-07T14:30:49;93024.50;;;5.63;90.74
10988;BME280;5547;42.672;23.230;2022-12-07T14:33:14;93021.53;;;5.39;91.99
10988;BME280;5547;42.672;23.230;2022-12-07T14:35:40;93022.63;;;5.38;91.67
10988;BME280;5547;42.672;23.230;2022-12-07T14:38:05;93020.41;;;5.30;92.52
10988;BME280;5547;42.672;23.230;2022-12-07T14:40:31;93014.00;;;5.09;93.18
10988;BME280;5547;42.672;23.230;2022-12-07T14:42:57;93024.50;;;4.88;94.61
10988;BME280;5547;42.672;23.230;2022-12-07T14:45:24;93008.69;;;5.05;93.55
10988;BME280;5547;42.672;23.230;2022-12-07T14:47:50;93016.97;;;4.90;94.80
10988;BME280;5547;42.672;23.230;2022-12-07T14:50:17;93012.78;;;4.63;95.62
10988;BME280;5547;42.672;23.230;2022-12-07T14:52:44;93012.03;;;4.56;97.77
10988;BME280;5547;42.672;23.230;2022-12-07T14:55:18;93013.47;;;4.35;98.03